Airfield :
LOGIN :

Register | Disclaimer

   EN    FR    IT 

 










Legend :    VFR   Marginal VFR   IFR   Intensive IFR   Very Intensive IFR
Visi :
Ceiling :
>= 8 km
>= 3000ft
5 to 8 km
1000 to 3000 ft
1500m to 5 km
500 to 1000 ft
800 to 1500m
200 to 500 ft
< 800m
< 200 ft
Symbols :   Thunderstorms  Fog  Heavy snow  Heavy precipitations  Wind > 20 kt
SIGMETs :     Misc.  Thunderstorms  Icing  Turbulence  Mountain Waves  Volcanic Ashes






- Airport Elevation : 299 ft
- IATA code : EDM


LFRI - La Roche Sur Yon - Les Ajoncs

CURRENT METAR :
  • 301530Z AUTO 15006KT 9999 SCT024 SCT029 BKN036 17/12 Q1024 NOSIG

EXPIRED METARs :
  • 301500Z AUTO 19005KT 9999 FEW030 16/11 Q1024 NOSIG
  • 301430Z AUTO 17003KT 140V200 9999 FEW023 BKN031 17/12 Q1024 NOSIG
  • 301400Z AUTO 18005KT 9999 FEW023 SCT031 17/12 Q1024 NOSIG
  • 301330Z AUTO 13004KT 090V170 9999 FEW013 BKN021 OVC034 16/12 Q1024 NOSIG
  • 301300Z AUTO 10004KT 050V190 9999 SCT012 BKN018 BKN024 16/13 Q1025 NOSIG
  • 301230Z AUTO 11004KT 080V150 9999 FEW020 BKN035 15/13 Q1025 NOSIG

TAF TAF LFRI
Valid from the 30 at 12:00 until the 31 at 12:00 UTC


301100Z 3012/3112 18007KT 9999 BKN040
BECMG 3018/3020 3000 BR BKN008
TEMPO 3020/3108 0300 FG VV///
BECMG 3108/3110 9999 NSW BKN020



MET'MAP, your aeronautical weather chart ! - Copyright ORBIFLY December 2007 - Disclaimer

ORBIFLY MET'MAP TEAM :

Programming & Development : Alexandra Zaïnal
Concept & original design : Baudouin d'Aumeries
Assistance for programming : Marc-Olivier Méhu
Technical & hardware support : Manuel Goepfert

Contact : metmap@orbifly.com




SOURCES & CREDITS :

   NOAA